createdAt,value
2022-07-27T00:01:10.115Z,17.10
2022-07-27T00:03:38.817Z,17.00
2022-07-27T00:06:07.533Z,17.00
2022-07-27T00:08:35.758Z,17.00
2022-07-27T00:11:04.299Z,16.90
2022-07-27T00:13:32.615Z,16.90
2022-07-27T00:16:00.781Z,16.90
2022-07-27T00:18:30.232Z,16.80
2022-07-27T00:20:58.224Z,16.90
2022-07-27T00:23:26.375Z,16.80
2022-07-27T00:25:54.808Z,16.90
2022-07-27T00:28:23.091Z,16.80
2022-07-27T00:30:51.115Z,16.80
2022-07-27T00:33:19.186Z,16.80
2022-07-27T00:35:48.610Z,16.80
2022-07-27T00:38:17.061Z,16.70
2022-07-27T00:40:45.589Z,16.70
2022-07-27T00:43:14.013Z,16.70
2022-07-27T00:45:42.207Z,16.70
2022-07-27T00:48:10.211Z,16.60
2022-07-27T00:50:39.397Z,16.60
2022-07-27T00:53:09.780Z,16.60
2022-07-27T00:55:39.468Z,16.60
2022-07-27T00:58:08.717Z,16.60
2022-07-27T01:00:37.778Z,16.60
2022-07-27T01:03:09.609Z,16.60
2022-07-27T01:05:43.172Z,16.60
2022-07-27T01:08:14.805Z,16.50
2022-07-27T01:10:44.511Z,16.50
2022-07-27T01:13:13.525Z,16.50
2022-07-27T01:15:42.744Z,16.50
2022-07-27T01:18:13.896Z,16.50
2022-07-27T01:20:42.686Z,16.40
2022-07-27T01:23:12.423Z,16.40
2022-07-27T01:25:43.890Z,16.40
2022-07-27T01:28:11.984Z,16.40
2022-07-27T01:30:40.132Z,16.30
2022-07-27T01:33:09.966Z,16.30
2022-07-27T01:35:40.107Z,16.30
2022-07-27T01:38:10.842Z,16.30
2022-07-27T01:40:40.722Z,16.30
2022-07-27T01:43:08.769Z,16.30
2022-07-27T01:45:36.775Z,16.20
2022-07-27T01:48:05.028Z,16.20
2022-07-27T01:50:33.345Z,16.20
2022-07-27T01:53:01.457Z,16.20
2022-07-27T01:55:31.483Z,16.10
2022-07-27T01:58:09.578Z,16.10
2022-07-27T02:00:38.138Z,16.10
2022-07-27T02:03:07.418Z,16.10
2022-07-27T02:05:36.146Z,16.10
2022-07-27T02:08:04.346Z,16.00
2022-07-27T02:10:32.656Z,16.00
2022-07-27T02:12:59.722Z,16.00
2022-07-27T02:15:42.151Z,16.00
2022-07-27T02:18:26.773Z,16.00
2022-07-27T02:20:59.494Z,15.90
2022-07-27T02:23:27.554Z,15.90
2022-07-27T02:25:55.576Z,15.90
2022-07-27T02:28:23.551Z,15.90
2022-07-27T02:30:52.974Z,15.90
2022-07-27T02:33:21.252Z,15.80
2022-07-27T02:35:49.394Z,15.80
2022-07-27T02:38:17.403Z,15.80
2022-07-27T02:40:45.606Z,15.80
2022-07-27T02:43:14.042Z,15.80
2022-07-27T02:45:42.143Z,15.80
2022-07-27T02:48:11.501Z,15.80
2022-07-27T02:50:39.690Z,15.80
2022-07-27T02:53:07.782Z,15.80
2022-07-27T02:55:35.829Z,15.80
2022-07-27T02:58:03.823Z,15.80
2022-07-27T03:00:32.237Z,15.70
2022-07-27T03:03:00.314Z,15.70
2022-07-27T03:05:29.831Z,15.70
2022-07-27T03:07:57.913Z,15.70
2022-07-27T03:10:25.901Z,15.70
2022-07-27T03:12:53.952Z,15.70
2022-07-27T03:15:21.968Z,15.70
2022-07-27T03:17:49.968Z,15.60
2022-07-27T03:20:18.043Z,15.60
2022-07-27T03:22:47.459Z,15.60
2022-07-27T03:25:15.438Z,15.60
2022-07-27T03:27:43.421Z,15.60
2022-07-27T03:30:12.204Z,15.60
2022-07-27T03:32:40.756Z,15.60
2022-07-27T03:35:09.467Z,15.50
2022-07-27T03:37:37.713Z,15.50
2022-07-27T03:40:08.772Z,15.50
2022-07-27T03:42:37.011Z,15.50
2022-07-27T03:45:06.153Z,15.50
2022-07-27T03:47:34.202Z,15.40
2022-07-27T03:50:02.213Z,15.40
2022-07-27T03:52:30.814Z,15.40
2022-07-27T03:54:58.886Z,15.40
2022-07-27T03:57:28.385Z,15.40
2022-07-27T03:59:56.454Z,15.40
2022-07-27T04:02:24.479Z,15.30
2022-07-27T04:04:52.785Z,15.30
2022-07-27T04:07:21.123Z,15.30
2022-07-27T04:09:49.100Z,15.20
2022-07-27T04:12:20.012Z,15.20
2022-07-27T04:14:49.824Z,15.20
2022-07-27T04:17:56.264Z,15.20
2022-07-27T04:20:07.031Z,15.20
2022-07-27T04:22:35.028Z,15.10
2022-07-27T04:25:03.059Z,15.10
2022-07-27T04:27:31.286Z,15.10
2022-07-27T04:30:00.600Z,15.10
2022-07-27T04:32:28.585Z,15.10
2022-07-27T04:34:56.665Z,15.10
2022-07-27T04:37:24.832Z,15.10
2022-07-27T04:39:57.355Z,15.10
2022-07-27T04:42:25.440Z,15.10
2022-07-27T04:44:53.466Z,15.10
2022-07-27T04:47:22.854Z,15.10
2022-07-27T04:49:50.920Z,15.10
2022-07-27T04:52:19.295Z,15.10
2022-07-27T04:54:55.588Z,15.10
2022-07-27T04:57:24.039Z,15.10
2022-07-27T04:59:52.139Z,15.20
2022-07-27T05:02:20.300Z,15.20
2022-07-27T05:04:49.645Z,15.20
2022-07-27T05:07:17.647Z,15.30
2022-07-27T05:09:46.032Z,15.30
2022-07-27T05:12:14.162Z,15.30
2022-07-27T05:14:42.208Z,15.30
2022-07-27T05:17:10.360Z,15.40
2022-07-27T05:19:40.282Z,15.40
2022-07-27T05:22:10.482Z,15.50
2022-07-27T05:24:38.629Z,15.50
2022-07-27T05:27:07.054Z,15.50
2022-07-27T05:29:35.146Z,15.50
2022-07-27T05:32:03.328Z,15.60
2022-07-27T05:34:31.635Z,15.60
2022-07-27T05:36:59.622Z,15.70
2022-07-27T05:39:29.769Z,15.70
2022-07-27T05:41:57.970Z,15.80
2022-07-27T05:44:26.029Z,15.80
2022-07-27T05:46:54.101Z,15.90
2022-07-27T05:49:22.676Z,16.00
2022-07-27T05:51:50.888Z,16.00
2022-07-27T05:54:19.546Z,16.10
2022-07-27T05:56:48.975Z,16.20
2022-07-27T05:59:16.977Z,16.10
2022-07-27T06:01:45.259Z,16.20
2022-07-27T06:04:14.695Z,16.20
2022-07-27T06:07:00.598Z,16.30
2022-07-27T06:09:28.619Z,16.30
2022-07-27T06:11:58.052Z,16.40
2022-07-27T06:14:26.229Z,16.50
2022-07-27T06:16:54.650Z,16.60
2022-07-27T06:19:22.765Z,16.70
2022-07-27T06:21:53.838Z,16.70
2022-07-27T06:24:22.576Z,16.80
2022-07-27T06:26:50.634Z,16.90
2022-07-27T06:29:20.260Z,16.90
2022-07-27T06:31:48.290Z,17.00
2022-07-27T06:34:16.610Z,17.10
2022-07-27T06:36:45.414Z,17.20
2022-07-27T06:39:14.253Z,17.20
2022-07-27T06:41:42.851Z,17.30
2022-07-27T06:44:11.205Z,17.40
2022-07-27T06:46:40.667Z,17.50
2022-07-27T06:49:08.943Z,17.60
2022-07-27T06:51:37.514Z,17.70
2022-07-27T06:54:06.144Z,17.70
2022-07-27T06:56:34.358Z,17.90
2022-07-27T06:59:02.548Z,17.90
2022-07-27T07:01:30.640Z,17.90
2022-07-27T07:04:00.512Z,18.00
2022-07-27T07:06:28.772Z,18.00
2022-07-27T07:08:56.938Z,18.10
2022-07-27T07:11:25.021Z,18.10
2022-07-27T07:13:53.211Z,18.20
2022-07-27T07:16:21.397Z,18.20
2022-07-27T07:18:52.537Z,18.20
2022-07-27T07:21:22.515Z,18.20
2022-07-27T07:23:51.393Z,18.20
2022-07-27T07:26:19.480Z,18.10
2022-07-27T07:28:47.542Z,18.10
2022-07-27T07:31:16.167Z,18.10
2022-07-27T07:33:44.378Z,18.10
2022-07-27T07:36:14.941Z,18.10
2022-07-27T07:38:45.333Z,18.10
2022-07-27T07:41:14.208Z,18.10
2022-07-27T07:43:42.340Z,18.10
2022-07-27T07:46:10.597Z,18.10
2022-07-27T07:48:40.036Z,18.10
2022-07-27T07:51:08.058Z,18.10
2022-07-27T07:53:40.947Z,18.10
2022-07-27T07:56:11.014Z,18.10
2022-07-27T07:58:39.098Z,18.10
2022-07-27T08:01:07.132Z,18.20
2022-07-27T08:03:35.362Z,18.20
2022-07-27T08:06:03.601Z,18.20
2022-07-27T08:08:31.679Z,18.20
2022-07-27T08:10:59.820Z,18.30
2022-07-27T08:13:29.379Z,18.30
2022-07-27T08:15:57.432Z,18.40
2022-07-27T08:18:25.558Z,18.40
2022-07-27T08:20:53.734Z,18.50
2022-07-27T08:23:21.840Z,18.50
2022-07-27T08:25:49.962Z,18.60
2022-07-27T08:28:18.088Z,18.70
2022-07-27T08:30:48.484Z,18.70
2022-07-27T08:33:18.137Z,18.80
2022-07-27T08:35:46.974Z,18.80
2022-07-27T08:38:15.236Z,18.90
2022-07-27T08:40:46.319Z,18.90
2022-07-27T08:43:23.667Z,18.90
2022-07-27T08:45:57.574Z,18.90
2022-07-27T08:48:26.896Z,18.80
2022-07-27T08:50:55.145Z,18.70
2022-07-27T08:53:23.940Z,18.70
2022-07-27T08:55:52.140Z,18.70
2022-07-27T08:58:20.323Z,18.70
2022-07-27T09:00:50.038Z,18.70
2022-07-27T09:03:21.720Z,18.60
2022-07-27T09:05:51.882Z,18.60
2022-07-27T09:08:24.460Z,18.60
2022-07-27T09:10:55.464Z,18.60
2022-07-27T09:13:25.912Z,18.70
2022-07-27T09:16:16.167Z,18.70
2022-07-27T09:18:44.774Z,18.70
2022-07-27T09:21:15.739Z,18.80
2022-07-27T09:23:47.793Z,18.90
2022-07-27T09:26:30.991Z,19.00
2022-07-27T09:29:01.850Z,19.10
2022-07-27T09:31:31.139Z,19.10
2022-07-27T09:34:01.899Z,19.20
2022-07-27T09:36:31.360Z,19.30
2022-07-27T09:39:03.607Z,19.40
2022-07-27T09:41:42.958Z,19.50
2022-07-27T09:47:00.595Z,19.60
2022-07-27T09:49:32.566Z,19.70
2022-07-27T09:52:02.641Z,19.80
2022-07-27T09:54:44.431Z,19.80
2022-07-27T09:57:12.862Z,19.90
2022-07-27T09:59:41.115Z,19.80
2022-07-27T10:02:09.703Z,19.90
2022-07-27T10:04:39.739Z,19.90
2022-07-27T10:07:13.295Z,19.90
2022-07-27T10:09:43.316Z,20.00
2022-07-27T10:12:11.699Z,19.90
2022-07-27T10:14:39.807Z,20.00
2022-07-27T10:17:12.952Z,20.00
2022-07-27T10:19:46.881Z,20.10
2022-07-27T10:22:15.337Z,20.20
2022-07-27T10:24:43.609Z,20.20
2022-07-27T10:27:20.695Z,20.20
2022-07-27T10:29:49.078Z,20.20
2022-07-27T10:32:25.314Z,20.20
2022-07-27T10:34:55.319Z,20.20
2022-07-27T10:37:27.841Z,20.20
2022-07-27T10:40:13.303Z,20.20
2022-07-27T10:42:42.004Z,20.20
2022-07-27T10:45:11.442Z,20.30
2022-07-27T10:47:45.713Z,20.30
2022-07-27T10:50:22.297Z,20.30
2022-07-27T10:52:52.213Z,20.30
2022-07-27T10:55:48.231Z,20.30
2022-07-27T10:58:45.885Z,20.40
2022-07-27T11:01:14.546Z,20.50
2022-07-27T11:03:49.501Z,20.60
2022-07-27T11:07:09.986Z,20.70
2022-07-27T11:10:03.445Z,20.90
2022-07-27T11:12:30.058Z,20.90
2022-07-27T11:14:59.363Z,21.00
2022-07-27T11:20:16.883Z,21.10
2022-07-27T11:23:26.626Z,21.10
2022-07-27T11:25:34.273Z,21.10
2022-07-27T11:28:08.193Z,21.10
2022-07-27T11:30:36.316Z,21.20
2022-07-27T11:33:05.849Z,21.20
2022-07-27T11:35:34.014Z,21.20
2022-07-27T11:38:06.290Z,21.20
2022-07-27T11:40:56.869Z,21.20
2022-07-27T11:43:38.885Z,21.30
2022-07-27T11:46:15.494Z,21.30
2022-07-27T11:49:06.718Z,21.30
2022-07-27T11:51:36.796Z,21.40
2022-07-27T11:54:08.117Z,21.40
2022-07-27T11:56:38.172Z,21.40
2022-07-27T11:59:13.240Z,21.50
2022-07-27T12:01:44.922Z,21.60
2022-07-27T12:04:24.899Z,21.70
2022-07-27T12:07:06.765Z,21.80
2022-07-27T12:09:39.232Z,21.80
2022-07-27T12:12:13.977Z,21.90
2022-07-27T12:14:43.676Z,21.90
2022-07-27T12:17:19.030Z,22.00
2022-07-27T12:19:56.338Z,22.00
2022-07-27T12:22:29.427Z,22.00
2022-07-27T12:25:00.383Z,22.00
2022-07-27T12:27:29.425Z,22.00
2022-07-27T12:30:07.879Z,22.00
2022-07-27T12:32:37.473Z,22.10
2022-07-27T12:35:23.936Z,22.00
2022-07-27T12:38:01.023Z,22.20
2022-07-27T12:40:31.896Z,22.30
2022-07-27T12:43:01.797Z,22.40
2022-07-27T12:45:35.452Z,22.40
2022-07-27T12:48:11.212Z,22.50
2022-07-27T12:50:41.025Z,22.40
2022-07-27T12:53:10.044Z,22.30
2022-07-27T12:55:39.607Z,22.20
2022-07-27T12:58:10.675Z,22.10
2022-07-27T13:00:39.217Z,21.90
2022-07-27T13:03:08.222Z,21.80
2022-07-27T13:05:36.926Z,21.80
2022-07-27T13:08:05.599Z,21.70
2022-07-27T13:10:34.057Z,21.70
2022-07-27T13:13:04.093Z,21.70
2022-07-27T13:15:32.243Z,21.70
2022-07-27T13:18:00.657Z,21.70
2022-07-27T13:20:29.003Z,21.70
2022-07-27T13:22:57.228Z,21.70
2022-07-27T13:25:25.549Z,21.70
2022-07-27T13:27:55.286Z,21.70
2022-07-27T13:30:25.264Z,21.80
2022-07-27T13:32:53.805Z,21.80
2022-07-27T13:35:22.166Z,21.90
2022-07-27T13:37:50.712Z,21.90
2022-07-27T13:40:18.836Z,22.00
2022-07-27T13:42:46.916Z,22.10
2022-07-27T13:45:15.243Z,22.10
2022-07-27T13:47:44.695Z,22.20
2022-07-27T13:50:18.747Z,22.20
2022-07-27T13:52:48.420Z,22.30
2022-07-27T13:55:17.569Z,22.30
2022-07-27T13:57:46.761Z,22.40
2022-07-27T14:00:15.983Z,22.40
2022-07-27T14:02:46.115Z,22.50
2022-07-27T14:05:14.845Z,22.60
2022-07-27T14:07:44.572Z,22.70
2022-07-27T14:10:36.127Z,22.70
2022-07-27T14:13:08.158Z,22.80
2022-07-27T14:15:53.256Z,22.80
2022-07-27T14:18:25.917Z,22.70
2022-07-27T14:20:54.676Z,22.60
2022-07-27T14:23:23.291Z,22.60
2022-07-27T14:25:51.423Z,22.60
2022-07-27T14:28:19.731Z,22.60
2022-07-27T14:30:48.396Z,22.60
2022-07-27T14:33:16.584Z,22.60
2022-07-27T14:35:46.361Z,22.60
2022-07-27T14:38:24.766Z,22.60
2022-07-27T14:40:57.808Z,22.70
2022-07-27T14:43:26.611Z,22.80
2022-07-27T14:45:54.723Z,23.00
2022-07-27T14:48:32.392Z,23.20
2022-07-27T14:51:12.295Z,23.40
2022-07-27T14:53:40.361Z,23.70
2022-07-27T14:56:08.355Z,23.90
2022-07-27T14:58:36.339Z,24.20
2022-07-27T15:01:04.515Z,24.50
2022-07-27T15:03:32.706Z,24.70
2022-07-27T15:06:00.756Z,24.90
2022-07-27T15:08:30.158Z,25.20
2022-07-27T15:10:58.718Z,25.30
2022-07-27T15:13:26.785Z,25.40
2022-07-27T15:15:56.249Z,25.60
2022-07-27T15:18:24.450Z,25.80
2022-07-27T15:20:52.556Z,25.90
2022-07-27T15:23:20.787Z,26.10
2022-07-27T15:25:50.280Z,26.20
2022-07-27T15:28:18.413Z,26.40
2022-07-27T15:30:46.498Z,26.40
2022-07-27T15:33:14.605Z,26.30
2022-07-27T15:35:42.868Z,26.20
2022-07-27T15:38:10.932Z,26.10
2022-07-27T15:40:41.317Z,25.90
2022-07-27T15:43:12.498Z,25.60
2022-07-27T15:45:41.400Z,25.30
2022-07-27T15:48:11.040Z,25.10
2022-07-27T15:50:40.065Z,25.00
2022-07-27T15:53:08.675Z,24.90
2022-07-27T15:55:37.614Z,24.80
2022-07-27T15:58:06.311Z,24.70
2022-07-27T16:00:40.553Z,24.60
2022-07-27T16:03:09.199Z,24.40
2022-07-27T16:05:37.398Z,24.20
2022-07-27T16:08:06.133Z,24.10
2022-07-27T16:10:34.283Z,24.10
2022-07-27T16:13:02.859Z,24.00
2022-07-27T16:15:48.674Z,24.00
2022-07-27T16:18:18.116Z,23.90
2022-07-27T16:20:46.290Z,23.90
2022-07-27T16:23:18.878Z,23.80
2022-07-27T16:26:03.843Z,23.70
2022-07-27T16:28:34.567Z,23.50
2022-07-27T16:31:03.380Z,23.40
2022-07-27T16:33:32.912Z,23.20
2022-07-27T16:36:00.948Z,23.00
2022-07-27T16:38:29.200Z,22.90
2022-07-27T16:40:57.174Z,22.70
2022-07-27T16:43:38.392Z,22.70
2022-07-27T16:46:08.456Z,22.50
2022-07-27T16:48:41.710Z,22.40
2022-07-27T16:51:11.365Z,22.30
2022-07-27T16:53:40.367Z,22.20
2022-07-27T16:56:09.002Z,22.10
2022-07-27T16:58:37.827Z,22.00
2022-07-27T17:01:06.587Z,22.00
2022-07-27T17:03:34.739Z,22.00
2022-07-27T17:06:06.395Z,22.00
2022-07-27T17:08:34.946Z,22.00
2022-07-27T17:11:02.976Z,22.00
2022-07-27T17:13:34.919Z,22.00
2022-07-27T17:16:04.245Z,21.90
2022-07-27T17:18:39.048Z,21.90
2022-07-27T17:21:12.608Z,21.90
2022-07-27T17:23:41.722Z,21.90
2022-07-27T17:26:11.139Z,21.90
2022-07-27T17:28:40.569Z,21.90
2022-07-27T17:31:10.598Z,22.00
2022-07-27T17:33:39.538Z,21.90
2022-07-27T17:36:15.068Z,22.00
2022-07-27T17:38:44.049Z,22.00
2022-07-27T17:41:12.463Z,22.00
2022-07-27T17:43:40.600Z,21.90
2022-07-27T17:46:10.028Z,21.90
2022-07-27T17:48:39.870Z,21.90
2022-07-27T17:51:10.582Z,21.80
2022-07-27T17:53:39.015Z,21.70
2022-07-27T17:56:08.513Z,21.70
2022-07-27T17:58:36.955Z,21.60
2022-07-27T18:01:06.196Z,21.60
2022-07-27T18:03:34.857Z,21.60
2022-07-27T18:06:02.946Z,21.50
2022-07-27T18:08:32.407Z,21.50
2022-07-27T18:11:00.537Z,21.50
2022-07-27T18:13:38.004Z,21.40
2022-07-27T18:16:09.254Z,21.40
2022-07-27T18:18:38.097Z,21.30
2022-07-27T18:21:06.765Z,21.30
2022-07-27T18:23:36.556Z,21.20
2022-07-27T18:26:04.649Z,21.20
2022-07-27T18:28:38.980Z,21.10
2022-07-27T18:31:10.171Z,21.10
2022-07-27T18:33:40.507Z,21.00
2022-07-27T18:36:08.999Z,21.00
2022-07-27T18:38:39.165Z,21.00
2022-07-27T18:41:07.695Z,21.00
2022-07-27T18:43:35.716Z,21.00
2022-07-27T18:46:04.073Z,20.90
2022-07-27T18:48:32.208Z,20.90
2022-07-27T18:51:00.288Z,20.90
2022-07-27T18:53:28.365Z,20.90
2022-07-27T18:55:57.957Z,20.80
2022-07-27T18:58:27.600Z,20.80
2022-07-27T19:00:55.867Z,20.80
2022-07-27T19:03:24.552Z,20.70
2022-07-27T19:05:54.881Z,20.70
2022-07-27T19:08:24.047Z,20.70
2022-07-27T19:10:52.395Z,20.60
2022-07-27T19:13:22.045Z,20.60
2022-07-27T19:15:50.265Z,20.50
2022-07-27T19:18:19.018Z,20.50
2022-07-27T19:20:47.468Z,20.40
2022-07-27T19:23:15.513Z,20.40
2022-07-27T19:25:45.145Z,20.40
2022-07-27T19:28:15.890Z,20.30
2022-07-27T19:30:45.368Z,20.20
2022-07-27T19:33:13.453Z,20.20
2022-07-27T19:35:41.581Z,20.10
2022-07-27T19:38:10.661Z,20.10
2022-07-27T19:40:44.776Z,20.00
2022-07-27T19:43:13.574Z,19.90
2022-07-27T19:45:42.029Z,19.90
2022-07-27T19:48:11.863Z,19.80
2022-07-27T19:50:40.413Z,19.80
2022-07-27T19:53:09.391Z,19.70
2022-07-27T19:55:37.576Z,19.60
2022-07-27T19:58:05.567Z,19.50
2022-07-27T20:00:34.263Z,19.50
2022-07-27T20:03:03.195Z,19.40
2022-07-27T20:05:33.108Z,19.30
2022-07-27T20:08:01.146Z,19.30
2022-07-27T20:10:29.309Z,19.30
2022-07-27T20:12:57.685Z,19.20
2022-07-27T20:15:26.294Z,19.20
2022-07-27T20:17:55.731Z,19.10
2022-07-27T20:20:24.287Z,19.10
2022-07-27T20:22:54.439Z,19.00
2022-07-27T20:25:23.461Z,19.00
2022-07-27T20:27:52.104Z,18.90
2022-07-27T20:30:21.068Z,18.90
2022-07-27T20:32:49.996Z,18.80
2022-07-27T20:35:18.596Z,18.80
2022-07-27T20:37:47.379Z,18.70
2022-07-27T20:40:16.979Z,18.70
2022-07-27T20:42:45.798Z,18.60
2022-07-27T20:45:14.861Z,18.60
2022-07-27T20:47:43.649Z,18.50
2022-07-27T20:50:13.819Z,18.50
2022-07-27T20:52:42.610Z,18.50
2022-07-27T20:55:12.023Z,18.40
2022-07-27T20:57:41.431Z,18.30
2022-07-27T21:00:10.453Z,18.30
2022-07-27T21:02:39.405Z,18.20
2022-07-27T21:05:09.044Z,18.20
2022-07-27T21:07:37.148Z,18.20
2022-07-27T21:10:05.707Z,18.20
2022-07-27T21:12:33.868Z,18.10
2022-07-27T21:15:03.750Z,18.10
2022-07-27T21:17:31.852Z,18.10
2022-07-27T21:19:59.933Z,18.00
2022-07-27T21:22:28.838Z,18.00
2022-07-27T21:24:57.622Z,18.00
2022-07-27T21:27:26.215Z,17.90
2022-07-27T21:29:54.624Z,17.90
2022-07-27T21:32:23.963Z,17.90
2022-07-27T21:34:52.077Z,17.80
2022-07-27T21:37:20.024Z,17.80
2022-07-27T21:39:48.115Z,17.70
2022-07-27T21:42:16.193Z,17.70
2022-07-27T21:44:44.185Z,17.70
2022-07-27T21:47:14.224Z,17.70
2022-07-27T21:49:44.414Z,17.60
2022-07-27T21:52:12.415Z,17.60
2022-07-27T21:54:40.675Z,17.60
2022-07-27T21:57:08.745Z,17.50
2022-07-27T21:59:36.788Z,17.50
2022-07-27T22:02:05.290Z,17.50
2022-07-27T22:04:33.579Z,17.40
2022-07-27T22:07:02.945Z,17.40
2022-07-27T22:09:30.970Z,17.40
2022-07-27T22:11:59.274Z,17.30
2022-07-27T22:14:27.496Z,17.30
2022-07-27T22:16:55.553Z,17.20
2022-07-27T22:19:23.997Z,17.20
2022-07-27T22:21:51.966Z,17.10
2022-07-27T22:24:21.320Z,17.10
2022-07-27T22:26:49.864Z,17.00
2022-07-27T22:29:17.945Z,17.00
2022-07-27T22:31:46.039Z,17.00
2022-07-27T22:34:14.503Z,17.00
2022-07-27T22:36:43.043Z,17.00
2022-07-27T22:39:11.637Z,17.00
2022-07-27T22:41:41.736Z,16.90
2022-07-27T22:44:09.765Z,16.90
2022-07-27T22:46:37.750Z,16.90
2022-07-27T22:49:05.893Z,16.90
2022-07-27T22:51:49.623Z,16.90
2022-07-27T22:54:21.417Z,16.90
2022-07-27T22:56:50.919Z,16.90
2022-07-27T22:59:19.110Z,16.90
2022-07-27T23:01:48.361Z,16.90
2022-07-27T23:04:17.929Z,16.90
2022-07-27T23:06:46.430Z,16.90
2022-07-27T23:09:14.660Z,16.90
2022-07-27T23:11:42.853Z,16.90
2022-07-27T23:14:12.911Z,16.90
2022-07-27T23:16:41.814Z,16.90
2022-07-27T23:19:10.343Z,16.90
2022-07-27T23:21:39.596Z,16.90
2022-07-27T23:24:11.082Z,16.80
2022-07-27T23:26:39.658Z,16.80
2022-07-27T23:29:07.819Z,16.80
2022-07-27T23:31:37.357Z,16.80
2022-07-27T23:34:05.403Z,16.80
2022-07-27T23:36:33.522Z,16.70
2022-07-27T23:39:01.622Z,16.70
2022-07-27T23:41:29.803Z,16.70
2022-07-27T23:43:57.861Z,16.60
2022-07-27T23:46:26.107Z,16.60
2022-07-27T23:48:55.593Z,16.60
2022-07-27T23:51:23.666Z,16.60
2022-07-27T23:53:51.796Z,16.60
2022-07-27T23:56:19.818Z,16.60
2022-07-27T23:58:47.840Z,16.60
